Cruz Bay, VI (00830)

2:38 AM AST on February 11, 2016 (GMT -0400)
ISTJOHNC2 | | Change Station
CLOSE
Current Station
Personal Weather Station
Location: Estate Bethany, ST. JOHN
Elevation: 443 ft
Nearby Weather Stations
Active Advisory: Coastal Hazard Statement

Elev 443 ft 18.33 °N, 64.78 °W | Updated 14 minutes ago

Clear
Clear
74.6 °F
Feels Like 74 °F
N
8.0
Wind Variable Wind from ENE
Gusts 15.0 mph

Today
High -- | Low -- °F
--% Chance of Precip.
Yesterday
High -- | Low -- °F
Precip. -- in
Pressure 30.07 in
Visibility 10.0 miles
Clouds Clear
Heat Index 74 °F
Dew Point 70 °F
Humidity 84%
Rainfall 0.00 in
Snow Depth Not available.
6:48 AM 6:18 PM
Waxing Crescent, 10% visible
METAR TIST 110553Z 08004KT 10SM CLR 24/21 A3007 RMK AO2 SLP182 T02390206 10250 20239 58015
Pressure 30.07 in
Visibility 10.0 miles
Clouds Clear
Heat Index 74 °F
Dew Point 70 °F
Humidity 84%
Rainfall 0.00 in
Snow Depth Not available.
6:48 AM 6:18 PM
Waxing Crescent, 10% visible
METAR TIST 110553Z 08004KT 10SM CLR 24/21 A3007 RMK AO2 SLP182 T02390206 10250 20239 58015

10-Day Weather Forecast

Almanac

Astronomy

Feb. 11, 2016 Rise Set
Actual Time
Civil Twilight
Nautical Twilight
Astronomical Twilight
Moon
Length of Visible Light
Length of Day
Tomorrow will be .
, % of the Moon is Illuminated

Today's Extremes

State Highs State Lows

Community

WunderPhotos

Upload Photos

1,892,028 photos uploaded!

WunderBlog® & News

Nearby

Air Quality

  Air Quality AQ Index Pollutant
Not available.

Snow Depth

Station Depth Elevation

Earthquake Activity

City Distance Mag. Time & Date
Minimum magnitude displayed is 2.5.

Coastal Water Temperatures

Place Temperature

Stations

Nearby Weather Stations

Station Location Temp. Windchill Dew Point Humidity Wind Precip. Elev Updated Type
                   

Watches & Warnings

Coastal Hazard Statement
Issued: 9:54 PM AST Feb. 10, 2016 – National Weather Service

... High rip current risk remains in effect through Thursday
afternoon...

* location... along the northwest through northeast facing beaches
of Puerto Rico... north facing beaches of Culebra and the northern
U.S. Virgin Islands.

* Timing... through Thursday afternoon.

* Impacts... dangerous rip currents making hazardous swimming
conditions.

Precautionary/preparedness actions...

There is a high risk of rip currents.

Rip currents are powerful channels of water flowing quickly away
from shore... which occur most often at low spots or breaks in The
Sandbar and in the vicinity of structures such as groins...
jetties and piers. Heed the advice of lifeguards... beach patrol
flags and signs.

If you become caught in a rip current... Yell for help. Remain
calm... do not exhaust yourself and stay afloat while waiting for
help. If you have to swim out of a rip current... swim parallel to
shore and back toward the beach when possible. Do not attempt to
swim directly against a rip current as you will tire quickly.